createdAt,value
2022-12-31T00:05:33.660Z,0.00
2022-12-31T00:15:37.856Z,0.00
2022-12-31T00:25:41.822Z,0.63
2022-12-31T00:35:46.081Z,1.13
2022-12-31T00:45:49.313Z,0.33
2022-12-31T00:55:54.294Z,0.00
2022-12-31T01:06:00.327Z,0.00
2022-12-31T01:16:09.868Z,0.13
2022-12-31T01:26:15.359Z,0.07
2022-12-31T01:36:25.962Z,0.10
2022-12-31T01:46:36.024Z,0.00
2022-12-31T01:56:43.224Z,0.00
2022-12-31T02:06:51.889Z,0.00
2022-12-31T02:17:03.986Z,1.17
2022-12-31T02:27:11.822Z,0.00
2022-12-31T02:37:18.272Z,0.23
2022-12-31T02:47:37.045Z,0.00
2022-12-31T02:57:47.982Z,0.00
2022-12-31T03:07:51.094Z,0.00
2022-12-31T03:18:03.944Z,0.67
2022-12-31T03:28:09.630Z,0.60
2022-12-31T03:38:14.535Z,0.00
2022-12-31T03:48:17.614Z,0.40
2022-12-31T03:58:23.002Z,0.10
2022-12-31T04:08:26.074Z,1.97
2022-12-31T04:18:30.499Z,0.27
2022-12-31T04:28:33.704Z,1.07
2022-12-31T04:38:37.925Z,0.10
2022-12-31T04:48:41.173Z,3.47
2022-12-31T04:58:46.022Z,0.80
2022-12-31T05:08:49.885Z,0.50
2022-12-31T05:18:54.225Z,0.77
2022-12-31T05:28:57.571Z,0.87
2022-12-31T05:39:03.699Z,0.30
2022-12-31T05:49:06.805Z,1.60
2022-12-31T05:59:11.469Z,1.27
2022-12-31T06:09:15.838Z,0.90
2022-12-31T06:19:20.265Z,3.13
2022-12-31T06:29:23.319Z,2.53
2022-12-31T06:39:29.147Z,1.50
2022-12-31T06:49:32.150Z,1.73
2022-12-31T06:59:37.834Z,2.00
2022-12-31T07:09:51.288Z,1.13
2022-12-31T07:20:04.876Z,0.80
2022-12-31T07:30:12.649Z,2.17
2022-12-31T07:40:25.171Z,3.20
2022-12-31T07:50:28.876Z,2.93
2022-12-31T08:00:33.938Z,3.23
2022-12-31T08:10:51.074Z,2.07
2022-12-31T08:21:08.360Z,1.63
2022-12-31T08:31:18.148Z,4.73
2022-12-31T08:41:28.852Z,1.33
2022-12-31T08:51:32.373Z,1.43
2022-12-31T09:01:49.258Z,2.23
2022-12-31T09:11:58.916Z,3.47
2022-12-31T09:22:04.264Z,2.17
2022-12-31T09:32:18.350Z,3.53
2022-12-31T09:42:53.944Z,4.20
2022-12-31T09:53:13.701Z,4.03
2022-12-31T10:03:31.000Z,3.47
2022-12-31T10:13:57.347Z,3.33
2022-12-31T10:24:16.328Z,7.80
2022-12-31T10:34:27.176Z,1.73
2022-12-31T10:45:18.516Z,3.77
2022-12-31T10:55:50.961Z,2.03
2022-12-31T11:06:33.384Z,4.63
2022-12-31T11:17:06.363Z,4.13
2022-12-31T11:27:24.874Z,7.83
2022-12-31T11:37:42.130Z,3.53
2022-12-31T11:58:21.571Z,3.13
2022-12-31T12:08:25.971Z,3.50
2022-12-31T12:18:37.063Z,3.40
2022-12-31T12:28:46.203Z,5.87
2022-12-31T12:39:02.167Z,3.13
2022-12-31T12:49:05.816Z,4.27
2022-12-31T12:59:33.155Z,2.70
2022-12-31T13:09:50.004Z,3.77
2022-12-31T13:20:01.644Z,3.93
2022-12-31T13:30:24.125Z,3.37
2022-12-31T13:40:32.188Z,2.80
2022-12-31T13:50:39.087Z,3.30
2022-12-31T14:00:48.610Z,4.80
2022-12-31T14:11:01.731Z,4.57
2022-12-31T14:21:12.044Z,3.20
2022-12-31T14:31:30.039Z,1.40
2022-12-31T14:41:46.272Z,4.90
2022-12-31T14:51:49.431Z,3.17
2022-12-31T15:01:54.683Z,4.80
2022-12-31T15:12:08.682Z,2.63
2022-12-31T15:22:28.453Z,4.43
2022-12-31T15:32:37.036Z,8.40
2022-12-31T15:42:50.074Z,3.50
2022-12-31T15:52:56.251Z,3.97
2022-12-31T16:03:00.764Z,5.53
2022-12-31T16:13:05.352Z,3.53
2022-12-31T16:23:22.258Z,2.93
2022-12-31T16:33:25.347Z,12.90
2022-12-31T16:43:31.870Z,3.27
2022-12-31T16:53:38.916Z,3.27
2022-12-31T17:03:47.114Z,5.37
2022-12-31T17:13:55.644Z,4.67
2022-12-31T17:24:03.267Z,9.17
2022-12-31T17:34:20.973Z,6.03
2022-12-31T17:44:29.586Z,5.63
2022-12-31T17:54:32.791Z,13.30
2022-12-31T18:04:37.925Z,4.90
2022-12-31T18:14:42.045Z,7.27
2022-12-31T18:24:46.434Z,4.87
2022-12-31T18:34:49.992Z,3.97
2022-12-31T18:44:54.466Z,6.87
2022-12-31T18:54:57.630Z,5.37
2022-12-31T19:05:02.111Z,6.17
2022-12-31T19:15:15.953Z,4.73
2022-12-31T19:25:22.727Z,5.50
2022-12-31T19:35:46.036Z,7.23
2022-12-31T19:45:51.581Z,5.63
2022-12-31T19:55:55.214Z,10.97
2022-12-31T20:06:05.593Z,5.90
2022-12-31T20:16:09.857Z,9.07
2022-12-31T20:26:14.384Z,19.47
2022-12-31T20:36:18.412Z,6.23
2022-12-31T20:46:25.834Z,5.27
2022-12-31T20:56:31.123Z,6.17
2022-12-31T21:06:36.378Z,3.03
2022-12-31T21:16:39.724Z,7.63
2022-12-31T21:26:44.171Z,7.30
2022-12-31T21:36:47.298Z,6.70
2022-12-31T21:47:33.423Z,1.60
2022-12-31T21:57:19.054Z,10.20
2022-12-31T22:07:23.562Z,2.23
2022-12-31T22:17:26.789Z,2.80
2022-12-31T22:27:31.157Z,3.03
2022-12-31T22:47:58.861Z,3.93
2022-12-31T22:58:02.027Z,9.07
2022-12-31T23:08:17.202Z,34.93
2022-12-31T23:28:45.318Z,20.10
2022-12-31T23:38:48.585Z,19.83
2022-12-31T23:48:53.863Z,15.80
2022-12-31T23:58:57.220Z,12.40
